sensor_id;sensor_type;location;lat;lon;timestamp;P1;durP1;ratioP1;P2;durP2;ratioP2
840;SDS011;406;48.566;13.450;2024-03-07T00:00:04;24.50;;;16.10;;
840;SDS011;406;48.566;13.450;2024-03-07T00:02:37;25.00;;;15.33;;
840;SDS011;406;48.566;13.450;2024-03-07T00:05:04;22.13;;;13.83;;
840;SDS011;406;48.566;13.450;2024-03-07T00:07:31;22.30;;;15.47;;
840;SDS011;406;48.566;13.450;2024-03-07T00:09:57;21.80;;;12.90;;
840;SDS011;406;48.566;13.450;2024-03-07T00:12:25;23.47;;;15.50;;
840;SDS011;406;48.566;13.450;2024-03-07T00:14:53;24.00;;;14.10;;
840;SDS011;406;48.566;13.450;2024-03-07T00:17:20;22.33;;;15.00;;
840;SDS011;406;48.566;13.450;2024-03-07T00:19:46;20.20;;;13.37;;
840;SDS011;406;48.566;13.450;2024-03-07T00:22:14;29.83;;;14.20;;
840;SDS011;406;48.566;13.450;2024-03-07T00:24:41;23.03;;;13.53;;
840;SDS011;406;48.566;13.450;2024-03-07T00:27:09;23.10;;;13.33;;
840;SDS011;406;48.566;13.450;2024-03-07T00:29:35;22.20;;;12.13;;
840;SDS011;406;48.566;13.450;2024-03-07T00:32:04;20.10;;;11.10;;
840;SDS011;406;48.566;13.450;2024-03-07T00:34:30;21.57;;;13.47;;
840;SDS011;406;48.566;13.450;2024-03-07T00:36:57;19.73;;;11.70;;
840;SDS011;406;48.566;13.450;2024-03-07T00:39:25;25.37;;;11.60;;
840;SDS011;406;48.566;13.450;2024-03-07T00:41:52;18.67;;;11.73;;
840;SDS011;406;48.566;13.450;2024-03-07T00:44:18;26.50;;;13.80;;
840;SDS011;406;48.566;13.450;2024-03-07T00:46:45;26.80;;;13.53;;
840;SDS011;406;48.566;13.450;2024-03-07T00:49:12;20.33;;;11.80;;
840;SDS011;406;48.566;13.450;2024-03-07T00:51:38;23.03;;;12.87;;
840;SDS011;406;48.566;13.450;2024-03-07T00:54:06;22.70;;;13.60;;
840;SDS011;406;48.566;13.450;2024-03-07T00:56:33;26.33;;;13.70;;
840;SDS011;406;48.566;13.450;2024-03-07T00:58:59;27.00;;;13.07;;
840;SDS011;406;48.566;13.450;2024-03-07T01:01:26;20.00;;;12.20;;
840;SDS011;406;48.566;13.450;2024-03-07T01:03:53;21.10;;;12.57;;
840;SDS011;406;48.566;13.450;2024-03-07T01:06:19;22.77;;;13.30;;
840;SDS011;406;48.566;13.450;2024-03-07T01:08:46;21.33;;;12.13;;
840;SDS011;406;48.566;13.450;2024-03-07T01:11:13;30.50;;;13.67;;
840;SDS011;406;48.566;13.450;2024-03-07T01:13:40;24.10;;;13.50;;
840;SDS011;406;48.566;13.450;2024-03-07T01:16:06;20.77;;;12.00;;
840;SDS011;406;48.566;13.450;2024-03-07T01:18:33;28.17;;;13.90;;
840;SDS011;406;48.566;13.450;2024-03-07T01:21:03;27.30;;;14.17;;
840;SDS011;406;48.566;13.450;2024-03-07T01:23:31;22.50;;;13.17;;
840;SDS011;406;48.566;13.450;2024-03-07T01:25:58;20.50;;;11.03;;
840;SDS011;406;48.566;13.450;2024-03-07T01:28:25;23.40;;;12.87;;
840;SDS011;406;48.566;13.450;2024-03-07T01:30:52;23.23;;;12.97;;
840;SDS011;406;48.566;13.450;2024-03-07T01:33:19;25.43;;;13.03;;
840;SDS011;406;48.566;13.450;2024-03-07T01:35:46;22.63;;;13.43;;
840;SDS011;406;48.566;13.450;2024-03-07T01:38:13;18.63;;;12.03;;
840;SDS011;406;48.566;13.450;2024-03-07T01:40:40;28.03;;;14.03;;
840;SDS011;406;48.566;13.450;2024-03-07T01:43:07;18.73;;;11.50;;
840;SDS011;406;48.566;13.450;2024-03-07T01:45:34;28.30;;;14.23;;
840;SDS011;406;48.566;13.450;2024-03-07T01:48:04;22.83;;;12.53;;
840;SDS011;406;48.566;13.450;2024-03-07T01:50:33;22.07;;;12.10;;
840;SDS011;406;48.566;13.450;2024-03-07T01:53:00;25.03;;;15.53;;
840;SDS011;406;48.566;13.450;2024-03-07T01:55:31;26.60;;;15.67;;
840;SDS011;406;48.566;13.450;2024-03-07T01:57:59;22.37;;;14.13;;
840;SDS011;406;48.566;13.450;2024-03-07T02:00:26;25.93;;;14.53;;
840;SDS011;406;48.566;13.450;2024-03-07T02:02:53;26.40;;;13.07;;
840;SDS011;406;48.566;13.450;2024-03-07T02:05:22;27.33;;;15.90;;
840;SDS011;406;48.566;13.450;2024-03-07T02:07:50;21.80;;;12.63;;
840;SDS011;406;48.566;13.450;2024-03-07T02:10:17;25.30;;;14.30;;
840;SDS011;406;48.566;13.450;2024-03-07T02:12:44;26.07;;;12.80;;
840;SDS011;406;48.566;13.450;2024-03-07T02:15:13;19.83;;;11.63;;
840;SDS011;406;48.566;13.450;2024-03-07T02:17:40;27.70;;;15.03;;
840;SDS011;406;48.566;13.450;2024-03-07T02:20:07;23.00;;;11.73;;
840;SDS011;406;48.566;13.450;2024-03-07T02:22:37;27.40;;;12.73;;
840;SDS011;406;48.566;13.450;2024-03-07T02:25:04;26.50;;;14.43;;
840;SDS011;406;48.566;13.450;2024-03-07T02:27:32;22.57;;;13.10;;
840;SDS011;406;48.566;13.450;2024-03-07T02:29:59;20.60;;;10.73;;
840;SDS011;406;48.566;13.450;2024-03-07T02:32:25;24.53;;;11.80;;
840;SDS011;406;48.566;13.450;2024-03-07T02:34:53;31.43;;;12.80;;
840;SDS011;406;48.566;13.450;2024-03-07T02:37:19;20.80;;;11.00;;
840;SDS011;406;48.566;13.450;2024-03-07T02:39:46;28.43;;;13.13;;
840;SDS011;406;48.566;13.450;2024-03-07T02:42:12;28.53;;;13.83;;
840;SDS011;406;48.566;13.450;2024-03-07T02:44:39;26.30;;;12.10;;
840;SDS011;406;48.566;13.450;2024-03-07T02:47:07;22.53;;;13.23;;
840;SDS011;406;48.566;13.450;2024-03-07T02:49:33;23.63;;;12.27;;
840;SDS011;406;48.566;13.450;2024-03-07T02:52:00;17.93;;;11.53;;
840;SDS011;406;48.566;13.450;2024-03-07T02:54:27;23.33;;;13.13;;
840;SDS011;406;48.566;13.450;2024-03-07T02:56:54;26.10;;;13.37;;
840;SDS011;406;48.566;13.450;2024-03-07T02:59:20;24.33;;;12.17;;
840;SDS011;406;48.566;13.450;2024-03-07T03:01:48;18.40;;;12.60;;
840;SDS011;406;48.566;13.450;2024-03-07T03:04:14;28.13;;;13.37;;
840;SDS011;406;48.566;13.450;2024-03-07T03:06:41;27.50;;;14.07;;
840;SDS011;406;48.566;13.450;2024-03-07T03:09:07;22.03;;;12.90;;
840;SDS011;406;48.566;13.450;2024-03-07T03:11:39;20.27;;;12.13;;
840;SDS011;406;48.566;13.450;2024-03-07T03:14:06;22.30;;;11.70;;
840;SDS011;406;48.566;13.450;2024-03-07T03:16:32;25.70;;;14.03;;
840;SDS011;406;48.566;13.450;2024-03-07T03:19:13;24.10;;;12.70;;
840;SDS011;406;48.566;13.450;2024-03-07T03:21:39;26.70;;;14.10;;
840;SDS011;406;48.566;13.450;2024-03-07T03:24:07;27.20;;;13.00;;
840;SDS011;406;48.566;13.450;2024-03-07T03:26:33;28.57;;;13.80;;
840;SDS011;406;48.566;13.450;2024-03-07T03:29:00;23.73;;;14.07;;
840;SDS011;406;48.566;13.450;2024-03-07T03:31:27;26.70;;;13.60;;
840;SDS011;406;48.566;13.450;2024-03-07T03:33:53;27.10;;;14.00;;
840;SDS011;406;48.566;13.450;2024-03-07T03:36:20;29.43;;;15.83;;
840;SDS011;406;48.566;13.450;2024-03-07T03:38:46;30.83;;;14.97;;
840;SDS011;406;48.566;13.450;2024-03-07T03:41:16;25.60;;;13.40;;
840;SDS011;406;48.566;13.450;2024-03-07T03:43:43;29.30;;;15.63;;
840;SDS011;406;48.566;13.450;2024-03-07T03:46:10;40.27;;;15.60;;
840;SDS011;406;48.566;13.450;2024-03-07T03:48:40;29.23;;;17.00;;
840;SDS011;406;48.566;13.450;2024-03-07T03:51:07;36.03;;;16.95;;
840;SDS011;406;48.566;13.450;2024-03-07T03:53:34;33.90;;;17.30;;
840;SDS011;406;48.566;13.450;2024-03-07T03:56:02;37.10;;;18.33;;
840;SDS011;406;48.566;13.450;2024-03-07T03:58:30;43.67;;;19.07;;
840;SDS011;406;48.566;13.450;2024-03-07T04:00:57;36.63;;;20.30;;
840;SDS011;406;48.566;13.450;2024-03-07T04:03:24;35.10;;;19.23;;
840;SDS011;406;48.566;13.450;2024-03-07T04:05:51;40.93;;;22.43;;
840;SDS011;406;48.566;13.450;2024-03-07T04:08:18;44.63;;;23.67;;
840;SDS011;406;48.566;13.450;2024-03-07T04:10:46;46.13;;;22.20;;
840;SDS011;406;48.566;13.450;2024-03-07T04:13:13;42.80;;;20.50;;
840;SDS011;406;48.566;13.450;2024-03-07T04:15:40;44.00;;;19.50;;
840;SDS011;406;48.566;13.450;2024-03-07T04:18:10;27.40;;;14.20;;
840;SDS011;406;48.566;13.450;2024-03-07T04:20:37;36.27;;;16.30;;
840;SDS011;406;48.566;13.450;2024-03-07T04:23:04;30.87;;;16.40;;
840;SDS011;406;48.566;13.450;2024-03-07T04:25:30;29.13;;;15.07;;
840;SDS011;406;48.566;13.450;2024-03-07T04:27:59;33.83;;;16.73;;
840;SDS011;406;48.566;13.450;2024-03-07T04:30:25;33.07;;;15.93;;
840;SDS011;406;48.566;13.450;2024-03-07T04:32:52;32.53;;;16.50;;
840;SDS011;406;48.566;13.450;2024-03-07T04:35:19;34.10;;;16.87;;
840;SDS011;406;48.566;13.450;2024-03-07T04:37:45;32.17;;;17.20;;
840;SDS011;406;48.566;13.450;2024-03-07T04:40:12;32.63;;;17.20;;
840;SDS011;406;48.566;13.450;2024-03-07T04:42:47;33.47;;;17.40;;
840;SDS011;406;48.566;13.450;2024-03-07T04:45:15;32.53;;;16.37;;
840;SDS011;406;48.566;13.450;2024-03-07T04:47:43;33.10;;;17.37;;
840;SDS011;406;48.566;13.450;2024-03-07T04:50:11;31.27;;;14.73;;
840;SDS011;406;48.566;13.450;2024-03-07T04:52:39;31.70;;;16.70;;
840;SDS011;406;48.566;13.450;2024-03-07T04:55:06;38.93;;;17.80;;
840;SDS011;406;48.566;13.450;2024-03-07T04:57:37;30.30;;;16.83;;
840;SDS011;406;48.566;13.450;2024-03-07T05:00:06;28.53;;;16.07;;
840;SDS011;406;48.566;13.450;2024-03-07T05:02:40;32.50;;;17.90;;
840;SDS011;406;48.566;13.450;2024-03-07T05:05:07;39.77;;;19.40;;
840;SDS011;406;48.566;13.450;2024-03-07T05:07:34;33.00;;;16.00;;
840;SDS011;406;48.566;13.450;2024-03-07T05:10:04;31.63;;;17.40;;
840;SDS011;406;48.566;13.450;2024-03-07T05:12:32;35.37;;;17.47;;
840;SDS011;406;48.566;13.450;2024-03-07T05:14:59;30.07;;;17.27;;
840;SDS011;406;48.566;13.450;2024-03-07T05:17:26;30.93;;;16.70;;
840;SDS011;406;48.566;13.450;2024-03-07T05:19:52;33.50;;;17.30;;
840;SDS011;406;48.566;13.450;2024-03-07T05:22:19;29.40;;;15.43;;
840;SDS011;406;48.566;13.450;2024-03-07T05:24:48;28.33;;;14.80;;
840;SDS011;406;48.566;13.450;2024-03-07T05:27:16;32.90;;;17.70;;
840;SDS011;406;48.566;13.450;2024-03-07T05:29:43;30.17;;;16.20;;
840;SDS011;406;48.566;13.450;2024-03-07T05:32:22;30.97;;;16.80;;
840;SDS011;406;48.566;13.450;2024-03-07T05:34:52;31.47;;;16.53;;
840;SDS011;406;48.566;13.450;2024-03-07T05:37:22;28.00;;;13.77;;
840;SDS011;406;48.566;13.450;2024-03-07T05:39:52;36.50;;;17.30;;
840;SDS011;406;48.566;13.450;2024-03-07T05:42:19;37.93;;;17.40;;
840;SDS011;406;48.566;13.450;2024-03-07T05:44:46;33.97;;;17.17;;
840;SDS011;406;48.566;13.450;2024-03-07T05:47:12;28.70;;;14.40;;
840;SDS011;406;48.566;13.450;2024-03-07T05:49:40;28.93;;;15.63;;
840;SDS011;406;48.566;13.450;2024-03-07T05:52:07;36.47;;;17.00;;
840;SDS011;406;48.566;13.450;2024-03-07T05:54:33;30.03;;;14.77;;
840;SDS011;406;48.566;13.450;2024-03-07T05:57:00;25.33;;;15.47;;
840;SDS011;406;48.566;13.450;2024-03-07T05:59:27;27.13;;;14.10;;
840;SDS011;406;48.566;13.450;2024-03-07T06:01:58;26.07;;;14.40;;
840;SDS011;406;48.566;13.450;2024-03-07T06:04:24;25.47;;;15.60;;
840;SDS011;406;48.566;13.450;2024-03-07T06:06:51;32.63;;;15.43;;
840;SDS011;406;48.566;13.450;2024-03-07T06:09:17;29.10;;;16.03;;
840;SDS011;406;48.566;13.450;2024-03-07T06:11:47;32.70;;;15.80;;
840;SDS011;406;48.566;13.450;2024-03-07T06:14:15;27.77;;;15.50;;
840;SDS011;406;48.566;13.450;2024-03-07T06:16:42;27.93;;;15.20;;
840;SDS011;406;48.566;13.450;2024-03-07T06:19:09;29.37;;;15.87;;
840;SDS011;406;48.566;13.450;2024-03-07T06:21:38;29.93;;;14.57;;
840;SDS011;406;48.566;13.450;2024-03-07T06:24:08;34.07;;;15.60;;
840;SDS011;406;48.566;13.450;2024-03-07T06:26:37;32.60;;;15.53;;
840;SDS011;406;48.566;13.450;2024-03-07T06:29:07;24.80;;;13.77;;
840;SDS011;406;48.566;13.450;2024-03-07T06:31:34;27.70;;;14.60;;
840;SDS011;406;48.566;13.450;2024-03-07T06:34:01;31.43;;;16.03;;
840;SDS011;406;48.566;13.450;2024-03-07T06:36:27;26.60;;;14.47;;
840;SDS011;406;48.566;13.450;2024-03-07T06:38:54;25.60;;;15.03;;
840;SDS011;406;48.566;13.450;2024-03-07T06:41:21;26.50;;;15.70;;
840;SDS011;406;48.566;13.450;2024-03-07T06:43:47;30.70;;;15.53;;
840;SDS011;406;48.566;13.450;2024-03-07T06:46:16;27.00;;;17.23;;
840;SDS011;406;48.566;13.450;2024-03-07T06:48:43;28.07;;;15.77;;
840;SDS011;406;48.566;13.450;2024-03-07T06:51:10;24.57;;;16.00;;
840;SDS011;406;48.566;13.450;2024-03-07T06:53:37;27.57;;;15.97;;
840;SDS011;406;48.566;13.450;2024-03-07T06:56:03;30.67;;;17.47;;
840;SDS011;406;48.566;13.450;2024-03-07T06:58:32;30.03;;;15.63;;
840;SDS011;406;48.566;13.450;2024-03-07T07:00:59;26.03;;;15.43;;
840;SDS011;406;48.566;13.450;2024-03-07T07:03:27;29.97;;;17.43;;
840;SDS011;406;48.566;13.450;2024-03-07T07:05:58;26.37;;;16.03;;
840;SDS011;406;48.566;13.450;2024-03-07T07:08:25;33.27;;;15.07;;
840;SDS011;406;48.566;13.450;2024-03-07T07:10:52;27.73;;;16.23;;
840;SDS011;406;48.566;13.450;2024-03-07T07:13:21;26.93;;;15.53;;
840;SDS011;406;48.566;13.450;2024-03-07T07:15:51;31.50;;;16.13;;
840;SDS011;406;48.566;13.450;2024-03-07T07:18:17;29.37;;;16.40;;
840;SDS011;406;48.566;13.450;2024-03-07T07:20:44;26.27;;;14.70;;
840;SDS011;406;48.566;13.450;2024-03-07T07:23:10;34.53;;;17.00;;
840;SDS011;406;48.566;13.450;2024-03-07T07:25:37;35.43;;;15.53;;
840;SDS011;406;48.566;13.450;2024-03-07T07:28:04;30.63;;;16.93;;
840;SDS011;406;48.566;13.450;2024-03-07T07:30:31;32.07;;;18.93;;
840;SDS011;406;48.566;13.450;2024-03-07T07:32:58;32.47;;;17.10;;
840;SDS011;406;48.566;13.450;2024-03-07T07:35:24;29.43;;;16.63;;
840;SDS011;406;48.566;13.450;2024-03-07T07:37:51;38.37;;;18.90;;
840;SDS011;406;48.566;13.450;2024-03-07T07:40:20;31.70;;;17.00;;
840;SDS011;406;48.566;13.450;2024-03-07T07:42:49;27.53;;;17.27;;
840;SDS011;406;48.566;13.450;2024-03-07T07:45:18;29.93;;;15.90;;
840;SDS011;406;48.566;13.450;2024-03-07T07:47:52;25.27;;;15.30;;
840;SDS011;406;48.566;13.450;2024-03-07T07:50:20;26.93;;;17.10;;
840;SDS011;406;48.566;13.450;2024-03-07T07:52:48;29.90;;;17.13;;
840;SDS011;406;48.566;13.450;2024-03-07T07:55:17;28.70;;;16.40;;
840;SDS011;406;48.566;13.450;2024-03-07T07:57:44;28.50;;;17.60;;
840;SDS011;406;48.566;13.450;2024-03-07T08:00:12;27.70;;;17.83;;
840;SDS011;406;48.566;13.450;2024-03-07T08:02:57;38.73;;;18.40;;
840;SDS011;406;48.566;13.450;2024-03-07T08:05:28;35.00;;;17.80;;
840;SDS011;406;48.566;13.450;2024-03-07T08:07:56;29.53;;;16.70;;
840;SDS011;406;48.566;13.450;2024-03-07T08:10:24;30.27;;;17.70;;
840;SDS011;406;48.566;13.450;2024-03-07T08:12:52;25.97;;;14.60;;
840;SDS011;406;48.566;13.450;2024-03-07T08:15:18;28.50;;;16.80;;
840;SDS011;406;48.566;13.450;2024-03-07T08:17:45;26.50;;;15.90;;
840;SDS011;406;48.566;13.450;2024-03-07T08:20:17;29.80;;;17.50;;
840;SDS011;406;48.566;13.450;2024-03-07T08:22:45;28.17;;;17.50;;
840;SDS011;406;48.566;13.450;2024-03-07T08:25:12;27.87;;;16.47;;
840;SDS011;406;48.566;13.450;2024-03-07T08:27:39;35.77;;;17.63;;
840;SDS011;406;48.566;13.450;2024-03-07T08:30:10;29.27;;;16.33;;
840;SDS011;406;48.566;13.450;2024-03-07T08:32:39;43.63;;;16.53;;
840;SDS011;406;48.566;13.450;2024-03-07T08:35:07;29.37;;;15.77;;
840;SDS011;406;48.566;13.450;2024-03-07T08:37:36;29.60;;;15.97;;
840;SDS011;406;48.566;13.450;2024-03-07T08:40:03;24.73;;;16.60;;
840;SDS011;406;48.566;13.450;2024-03-07T08:42:33;23.93;;;14.93;;
840;SDS011;406;48.566;13.450;2024-03-07T08:45:00;28.30;;;15.63;;
840;SDS011;406;48.566;13.450;2024-03-07T08:47:34;26.90;;;15.67;;
840;SDS011;406;48.566;13.450;2024-03-07T08:50:02;26.33;;;14.73;;
840;SDS011;406;48.566;13.450;2024-03-07T08:52:32;23.67;;;14.37;;
840;SDS011;406;48.566;13.450;2024-03-07T08:54:58;22.80;;;13.80;;
840;SDS011;406;48.566;13.450;2024-03-07T08:57:26;22.43;;;13.33;;
840;SDS011;406;48.566;13.450;2024-03-07T08:59:52;26.80;;;14.40;;
840;SDS011;406;48.566;13.450;2024-03-07T09:02:19;22.10;;;13.47;;
840;SDS011;406;48.566;13.450;2024-03-07T09:04:46;18.43;;;13.97;;
840;SDS011;406;48.566;13.450;2024-03-07T09:07:12;22.13;;;13.50;;
840;SDS011;406;48.566;13.450;2024-03-07T09:09:40;19.93;;;12.10;;
840;SDS011;406;48.566;13.450;2024-03-07T09:12:09;18.83;;;13.33;;
840;SDS011;406;48.566;13.450;2024-03-07T09:14:36;18.53;;;12.17;;
840;SDS011;406;48.566;13.450;2024-03-07T09:17:03;17.93;;;11.90;;
840;SDS011;406;48.566;13.450;2024-03-07T09:19:33;16.63;;;11.30;;
840;SDS011;406;48.566;13.450;2024-03-07T09:21:59;15.70;;;10.30;;
840;SDS011;406;48.566;13.450;2024-03-07T09:24:26;17.60;;;11.30;;
840;SDS011;406;48.566;13.450;2024-03-07T09:26:54;15.67;;;11.43;;
840;SDS011;406;48.566;13.450;2024-03-07T09:29:22;15.33;;;10.87;;
840;SDS011;406;48.566;13.450;2024-03-07T09:31:49;15.13;;;10.33;;
840;SDS011;406;48.566;13.450;2024-03-07T09:34:18;15.20;;;9.90;;
840;SDS011;406;48.566;13.450;2024-03-07T09:36:47;12.77;;;9.40;;
840;SDS011;406;48.566;13.450;2024-03-07T09:39:15;12.43;;;8.97;;
840;SDS011;406;48.566;13.450;2024-03-07T09:41:42;11.80;;;8.67;;
840;SDS011;406;48.566;13.450;2024-03-07T09:44:09;12.83;;;9.03;;
840;SDS011;406;48.566;13.450;2024-03-07T09:46:38;11.17;;;7.50;;
840;SDS011;406;48.566;13.450;2024-03-07T09:49:04;10.70;;;8.17;;
840;SDS011;406;48.566;13.450;2024-03-07T09:51:32;15.60;;;7.40;;
840;SDS011;406;48.566;13.450;2024-03-07T09:53:59;9.00;;;6.93;;
840;SDS011;406;48.566;13.450;2024-03-07T09:56:27;10.90;;;7.03;;
840;SDS011;406;48.566;13.450;2024-03-07T09:58:57;9.23;;;6.87;;
840;SDS011;406;48.566;13.450;2024-03-07T10:01:25;11.30;;;6.90;;
840;SDS011;406;48.566;13.450;2024-03-07T10:03:54;12.43;;;7.60;;
840;SDS011;406;48.566;13.450;2024-03-07T10:06:24;11.80;;;8.43;;
840;SDS011;406;48.566;13.450;2024-03-07T10:08:53;10.13;;;6.53;;
840;SDS011;406;48.566;13.450;2024-03-07T10:11:19;8.17;;;6.47;;
840;SDS011;406;48.566;13.450;2024-03-07T10:13:47;10.67;;;8.77;;
840;SDS011;406;48.566;13.450;2024-03-07T10:16:15;11.70;;;9.37;;
840;SDS011;406;48.566;13.450;2024-03-07T10:18:43;11.00;;;8.30;;
840;SDS011;406;48.566;13.450;2024-03-07T10:21:18;9.93;;;8.17;;
840;SDS011;406;48.566;13.450;2024-03-07T10:23:45;12.07;;;7.67;;
840;SDS011;406;48.566;13.450;2024-03-07T10:26:12;12.80;;;9.20;;
840;SDS011;406;48.566;13.450;2024-03-07T10:28:39;12.90;;;8.83;;
840;SDS011;406;48.566;13.450;2024-03-07T10:31:05;11.67;;;8.70;;
840;SDS011;406;48.566;13.450;2024-03-07T10:33:39;10.80;;;8.50;;
840;SDS011;406;48.566;13.450;2024-03-07T10:36:06;10.73;;;8.20;;
840;SDS011;406;48.566;13.450;2024-03-07T10:38:39;12.63;;;9.00;;
840;SDS011;406;48.566;13.450;2024-03-07T10:41:06;13.43;;;9.10;;
840;SDS011;406;48.566;13.450;2024-03-07T10:43:36;10.10;;;8.00;;
840;SDS011;406;48.566;13.450;2024-03-07T10:46:05;12.53;;;9.17;;
840;SDS011;406;48.566;13.450;2024-03-07T10:48:35;12.40;;;8.60;;
840;SDS011;406;48.566;13.450;2024-03-07T10:51:12;14.17;;;9.63;;
840;SDS011;406;48.566;13.450;2024-03-07T10:54:04;10.97;;;8.20;;
840;SDS011;406;48.566;13.450;2024-03-07T10:59:23;13.40;;;9.50;;
840;SDS011;406;48.566;13.450;2024-03-07T11:01:57;12.83;;;8.47;;
840;SDS011;406;48.566;13.450;2024-03-07T11:04:26;14.40;;;10.03;;
840;SDS011;406;48.566;13.450;2024-03-07T11:06:53;12.30;;;9.20;;
840;SDS011;406;48.566;13.450;2024-03-07T11:09:20;15.37;;;10.30;;
840;SDS011;406;48.566;13.450;2024-03-07T11:11:50;15.50;;;10.77;;
840;SDS011;406;48.566;13.450;2024-03-07T11:14:17;12.40;;;9.40;;
840;SDS011;406;48.566;13.450;2024-03-07T11:16:43;12.80;;;9.57;;
840;SDS011;406;48.566;13.450;2024-03-07T11:19:27;13.30;;;10.30;;
840;SDS011;406;48.566;13.450;2024-03-07T11:21:55;13.30;;;10.00;;
840;SDS011;406;48.566;13.450;2024-03-07T11:24:23;18.43;;;10.37;;
840;SDS011;406;48.566;13.450;2024-03-07T11:26:52;14.10;;;9.70;;
840;SDS011;406;48.566;13.450;2024-03-07T11:29:39;14.00;;;8.93;;
840;SDS011;406;48.566;13.450;2024-03-07T11:32:10;13.47;;;10.00;;
840;SDS011;406;48.566;13.450;2024-03-07T11:34:38;11.93;;;9.30;;
840;SDS011;406;48.566;13.450;2024-03-07T11:37:08;12.30;;;9.10;;
840;SDS011;406;48.566;13.450;2024-03-07T11:39:44;14.77;;;9.90;;
840;SDS011;406;48.566;13.450;2024-03-07T11:44:54;16.70;;;10.80;;
840;SDS011;406;48.566;13.450;2024-03-07T11:47:25;14.93;;;10.07;;
840;SDS011;406;48.566;13.450;2024-03-07T11:49:55;13.57;;;9.40;;
840;SDS011;406;48.566;13.450;2024-03-07T11:52:24;16.10;;;11.27;;
840;SDS011;406;48.566;13.450;2024-03-07T11:54:53;13.37;;;10.13;;
840;SDS011;406;48.566;13.450;2024-03-07T11:57:19;13.80;;;9.60;;
840;SDS011;406;48.566;13.450;2024-03-07T11:59:52;12.70;;;9.87;;
840;SDS011;406;48.566;13.450;2024-03-07T12:02:19;15.53;;;10.93;;
840;SDS011;406;48.566;13.450;2024-03-07T12:04:49;14.47;;;9.87;;
840;SDS011;406;48.566;13.450;2024-03-07T12:07:16;15.73;;;11.10;;
840;SDS011;406;48.566;13.450;2024-03-07T12:09:49;15.47;;;10.70;;
840;SDS011;406;48.566;13.450;2024-03-07T12:12:20;13.60;;;8.67;;
840;SDS011;406;48.566;13.450;2024-03-07T12:14:51;15.90;;;10.90;;
840;SDS011;406;48.566;13.450;2024-03-07T12:17:18;12.80;;;10.30;;
840;SDS011;406;48.566;13.450;2024-03-07T12:19:45;17.20;;;11.23;;
840;SDS011;406;48.566;13.450;2024-03-07T12:22:13;14.20;;;9.33;;
840;SDS011;406;48.566;13.450;2024-03-07T12:24:39;13.50;;;9.70;;
840;SDS011;406;48.566;13.450;2024-03-07T12:27:09;15.17;;;9.70;;
840;SDS011;406;48.566;13.450;2024-03-07T12:29:37;14.27;;;9.57;;
840;SDS011;406;48.566;13.450;2024-03-07T12:32:05;17.40;;;10.23;;
840;SDS011;406;48.566;13.450;2024-03-07T12:34:34;14.83;;;9.20;;
840;SDS011;406;48.566;13.450;2024-03-07T12:37:07;16.43;;;10.33;;
840;SDS011;406;48.566;13.450;2024-03-07T12:39:34;18.03;;;9.90;;
840;SDS011;406;48.566;13.450;2024-03-07T12:42:21;14.83;;;10.50;;
840;SDS011;406;48.566;13.450;2024-03-07T12:44:47;14.50;;;8.80;;
840;SDS011;406;48.566;13.450;2024-03-07T12:47:14;15.90;;;11.00;;
840;SDS011;406;48.566;13.450;2024-03-07T12:49:41;13.17;;;9.70;;
840;SDS011;406;48.566;13.450;2024-03-07T12:52:08;14.23;;;9.37;;
840;SDS011;406;48.566;13.450;2024-03-07T12:54:35;15.50;;;10.27;;
840;SDS011;406;48.566;13.450;2024-03-07T12:57:07;14.90;;;9.13;;
840;SDS011;406;48.566;13.450;2024-03-07T12:59:35;12.83;;;9.10;;
840;SDS011;406;48.566;13.450;2024-03-07T13:02:10;13.30;;;7.63;;
840;SDS011;406;48.566;13.450;2024-03-07T13:04:37;15.03;;;8.60;;
840;SDS011;406;48.566;13.450;2024-03-07T13:07:09;16.63;;;9.90;;
840;SDS011;406;48.566;13.450;2024-03-07T13:09:36;12.03;;;7.97;;
840;SDS011;406;48.566;13.450;2024-03-07T13:12:04;12.97;;;9.20;;
840;SDS011;406;48.566;13.450;2024-03-07T13:14:36;16.90;;;10.63;;
840;SDS011;406;48.566;13.450;2024-03-07T13:17:02;12.80;;;8.87;;
840;SDS011;406;48.566;13.450;2024-03-07T13:19:30;13.53;;;8.60;;
840;SDS011;406;48.566;13.450;2024-03-07T13:21:57;12.90;;;8.40;;
840;SDS011;406;48.566;13.450;2024-03-07T13:24:24;13.30;;;8.80;;
840;SDS011;406;48.566;13.450;2024-03-07T13:26:52;10.10;;;8.50;;
840;SDS011;406;48.566;13.450;2024-03-07T13:29:19;12.93;;;9.10;;
840;SDS011;406;48.566;13.450;2024-03-07T13:31:51;12.10;;;8.60;;
840;SDS011;406;48.566;13.450;2024-03-07T13:34:18;12.90;;;8.83;;
840;SDS011;406;48.566;13.450;2024-03-07T13:36:45;11.60;;;8.40;;
840;SDS011;406;48.566;13.450;2024-03-07T13:39:12;11.93;;;8.73;;
840;SDS011;406;48.566;13.450;2024-03-07T13:41:41;13.60;;;9.00;;
840;SDS011;406;48.566;13.450;2024-03-07T13:44:08;11.43;;;7.67;;
840;SDS011;406;48.566;13.450;2024-03-07T13:46:35;12.10;;;7.57;;
840;SDS011;406;48.566;13.450;2024-03-07T13:49:02;10.80;;;7.27;;
840;SDS011;406;48.566;13.450;2024-03-07T13:51:40;13.00;;;7.47;;
840;SDS011;406;48.566;13.450;2024-03-07T13:54:17;11.87;;;8.27;;
840;SDS011;406;48.566;13.450;2024-03-07T13:57:15;10.70;;;7.40;;
840;SDS011;406;48.566;13.450;2024-03-07T14:00:25;11.37;;;6.37;;
840;SDS011;406;48.566;13.450;2024-03-07T14:03:10;8.70;;;7.77;;
840;SDS011;406;48.566;13.450;2024-03-07T14:05:59;13.80;;;8.53;;
840;SDS011;406;48.566;13.450;2024-03-07T14:20:53;10.83;;;7.23;;
840;SDS011;406;48.566;13.450;2024-03-07T14:23:32;12.17;;;8.10;;
840;SDS011;406;48.566;13.450;2024-03-07T14:32:02;8.67;;;6.73;;
840;SDS011;406;48.566;13.450;2024-03-07T14:40:17;14.80;;;8.10;;
840;SDS011;406;48.566;13.450;2024-03-07T14:42:46;13.70;;;8.20;;
840;SDS011;406;48.566;13.450;2024-03-07T14:45:19;10.47;;;8.30;;
840;SDS011;406;48.566;13.450;2024-03-07T14:47:48;11.37;;;8.47;;
840;SDS011;406;48.566;13.450;2024-03-07T14:50:17;11.90;;;8.40;;
840;SDS011;406;48.566;13.450;2024-03-07T14:52:47;12.90;;;8.53;;
840;SDS011;406;48.566;13.450;2024-03-07T14:55:14;14.07;;;9.63;;
840;SDS011;406;48.566;13.450;2024-03-07T14:57:40;13.33;;;8.70;;
840;SDS011;406;48.566;13.450;2024-03-07T15:00:08;13.87;;;8.63;;
840;SDS011;406;48.566;13.450;2024-03-07T15:02:58;11.73;;;8.63;;
840;SDS011;406;48.566;13.450;2024-03-07T15:05:26;13.43;;;9.30;;
840;SDS011;406;48.566;13.450;2024-03-07T15:07:53;12.60;;;9.17;;
840;SDS011;406;48.566;13.450;2024-03-07T15:10:32;12.73;;;8.37;;
840;SDS011;406;48.566;13.450;2024-03-07T15:13:01;15.00;;;9.77;;
840;SDS011;406;48.566;13.450;2024-03-07T15:15:29;14.50;;;9.67;;
840;SDS011;406;48.566;13.450;2024-03-07T15:17:59;11.30;;;8.53;;
840;SDS011;406;48.566;13.450;2024-03-07T15:20:26;10.67;;;8.23;;
840;SDS011;406;48.566;13.450;2024-03-07T15:22:56;14.77;;;10.17;;
840;SDS011;406;48.566;13.450;2024-03-07T15:25:24;12.67;;;8.80;;
840;SDS011;406;48.566;13.450;2024-03-07T15:27:51;12.23;;;8.40;;
840;SDS011;406;48.566;13.450;2024-03-07T15:30:19;13.50;;;10.13;;
840;SDS011;406;48.566;13.450;2024-03-07T15:32:46;12.00;;;8.30;;
840;SDS011;406;48.566;13.450;2024-03-07T15:35:13;11.87;;;8.50;;
840;SDS011;406;48.566;13.450;2024-03-07T15:37:48;13.57;;;8.50;;
840;SDS011;406;48.566;13.450;2024-03-07T15:40:15;13.47;;;9.30;;
840;SDS011;406;48.566;13.450;2024-03-07T15:42:43;13.80;;;10.40;;